createdAt,value
2022-11-05T00:00:59.952Z,4.88
2022-11-05T00:06:21.366Z,355.63
2022-11-05T00:11:45.684Z,9.05
2022-11-05T00:16:47.467Z,95.15
2022-11-05T00:22:08.284Z,276.23
2022-11-05T00:27:10.341Z,5.38
2022-11-05T00:32:13.406Z,8.55
2022-11-05T00:37:15.162Z,29.67
2022-11-05T00:42:35.319Z,107.05
2022-11-05T00:47:56.765Z,5.60
2022-11-05T00:53:01.887Z,3.47
2022-11-05T00:58:05.201Z,6.70
2022-11-05T01:03:09.338Z,5.20
2022-11-05T01:08:12.246Z,3.85
2022-11-05T01:13:16.437Z,4.50
2022-11-05T01:18:19.089Z,4.35
2022-11-05T01:23:21.262Z,5.90
2022-11-05T01:28:25.090Z,3.75
2022-11-05T01:33:26.883Z,4.72
2022-11-05T01:38:31.521Z,5.63
2022-11-05T01:43:48.292Z,3.00
2022-11-05T01:48:51.954Z,3.00
2022-11-05T01:54:06.194Z,2.83
2022-11-05T01:59:11.659Z,2.75
2022-11-05T02:04:35.650Z,2.97
2022-11-05T02:09:57.646Z,2.38
2022-11-05T02:15:02.338Z,2.17
2022-11-05T02:20:24.017Z,2.42
2022-11-05T02:25:55.702Z,2.90
2022-11-05T02:31:16.717Z,2.83
2022-11-05T02:36:30.816Z,3.08
2022-11-05T02:41:41.158Z,5.63
2022-11-05T02:46:51.845Z,3.33
2022-11-05T02:51:57.318Z,3.15
2022-11-05T02:57:00.382Z,3.40
2022-11-05T03:02:05.906Z,2.95
2022-11-05T03:07:28.039Z,3.58
2022-11-05T03:12:47.010Z,3.78
2022-11-05T03:23:05.800Z,4.70
2022-11-05T03:28:09.904Z,3.88
2022-11-05T03:33:19.409Z,3.90
2022-11-05T03:38:23.120Z,5.05
2022-11-05T03:43:27.581Z,4.70
2022-11-05T03:48:31.183Z,4.85
2022-11-05T03:53:37.937Z,5.47
2022-11-05T03:58:44.853Z,4.70
2022-11-05T04:03:46.650Z,5.03
2022-11-05T04:09:08.642Z,6.05
2022-11-05T04:14:11.110Z,5.60
2022-11-05T04:19:36.575Z,4.95
2022-11-05T04:24:41.679Z,5.03
2022-11-05T04:30:04.324Z,4.38
2022-11-05T04:35:07.047Z,6.15
2022-11-05T04:40:09.036Z,6.15
2022-11-05T04:45:10.812Z,5.40
2022-11-05T04:50:15.854Z,5.28
2022-11-05T04:55:24.572Z,4.82
2022-11-05T05:00:26.359Z,6.30
2022-11-05T05:05:30.525Z,5.57
2022-11-05T05:10:32.830Z,6.65
2022-11-05T05:15:37.651Z,5.50
2022-11-05T05:20:58.025Z,5.03
2022-11-05T05:26:08.205Z,5.85
2022-11-05T05:31:09.993Z,4.90
2022-11-05T05:36:20.708Z,6.40
2022-11-05T05:41:22.505Z,6.20
2022-11-05T05:46:24.352Z,7.30
2022-11-05T05:51:26.104Z,6.78
2022-11-05T05:56:27.849Z,9.02
2022-11-05T06:01:29.643Z,7.07
2022-11-05T06:06:31.451Z,7.10
2022-11-05T06:11:33.298Z,7.45
2022-11-05T06:16:35.943Z,6.95
2022-11-05T06:21:37.811Z,7.35
2022-11-05T06:26:42.905Z,7.57
2022-11-05T06:31:44.700Z,6.93
2022-11-05T06:36:47.604Z,7.20
2022-11-05T06:42:18.080Z,7.30
2022-11-05T06:47:11.319Z,8.23
2022-11-05T06:52:13.857Z,7.90
2022-11-05T06:57:15.668Z,8.30
2022-11-05T07:02:18.569Z,7.82
2022-11-05T07:07:20.376Z,8.10
2022-11-05T07:12:22.663Z,10.23
2022-11-05T07:17:25.078Z,8.90
2022-11-05T07:22:28.755Z,9.05
2022-11-05T07:27:30.491Z,9.95
2022-11-05T07:32:45.275Z,10.00
2022-11-05T07:37:49.794Z,11.30
2022-11-05T07:42:55.281Z,11.02
2022-11-05T07:48:01.638Z,9.82
2022-11-05T07:53:14.436Z,12.02
2022-11-05T07:58:17.448Z,9.25
2022-11-05T08:03:20.402Z,10.07
2022-11-05T08:08:22.485Z,9.80
2022-11-05T08:13:24.311Z,9.18
2022-11-05T08:18:31.834Z,9.82
2022-11-05T08:23:33.609Z,9.75
2022-11-05T08:28:35.723Z,9.30
2022-11-05T08:33:37.900Z,8.88
2022-11-05T08:38:39.871Z,8.88
2022-11-05T08:48:57.843Z,9.13
2022-11-05T08:54:07.494Z,7.70
2022-11-05T08:59:09.269Z,8.00
2022-11-05T09:04:11.827Z,6.90
2022-11-05T09:09:13.608Z,7.97
2022-11-05T09:14:15.853Z,7.00
2022-11-05T09:19:17.663Z,7.55
2022-11-05T09:24:22.846Z,441.58
2022-11-05T09:29:25.183Z,428.45
2022-11-05T09:34:26.983Z,464.00
2022-11-05T09:39:29.514Z,456.02
2022-11-05T09:44:42.686Z,456.00
2022-11-05T09:49:48.627Z,447.00
2022-11-05T09:55:00.904Z,448.15
2022-11-05T10:00:05.182Z,455.55
2022-11-05T10:05:11.391Z,479.52
2022-11-05T10:10:41.157Z,492.05
2022-11-05T10:15:47.013Z,504.30
2022-11-05T10:20:50.670Z,503.85
2022-11-05T10:26:08.493Z,507.80
2022-11-05T10:36:16.457Z,521.38
2022-11-05T10:41:41.429Z,556.38
2022-11-05T10:46:51.221Z,508.05
2022-11-05T10:51:55.913Z,508.48
2022-11-05T10:56:57.744Z,513.95
2022-11-05T11:02:16.422Z,521.90
2022-11-05T11:07:21.754Z,538.90
2022-11-05T11:12:24.781Z,538.33
2022-11-05T11:17:28.319Z,549.55
2022-11-05T11:22:31.180Z,551.15
2022-11-05T11:27:34.452Z,535.13
2022-11-05T11:32:39.389Z,559.35
2022-11-05T11:37:42.758Z,529.35
2022-11-05T11:42:49.581Z,535.75
2022-11-05T11:47:51.513Z,521.10
2022-11-05T11:52:53.352Z,529.40
2022-11-05T11:58:05.227Z,513.97
2022-11-05T12:03:21.845Z,518.92
2022-11-05T12:08:26.663Z,517.17
2022-11-05T12:13:31.227Z,497.52
2022-11-05T12:18:49.136Z,524.40
2022-11-05T12:29:18.927Z,505.48
2022-11-05T12:34:24.605Z,511.00
2022-11-05T12:39:43.393Z,527.25
2022-11-05T12:44:45.214Z,514.25
2022-11-05T12:49:46.966Z,535.13
2022-11-05T12:54:51.742Z,557.95
2022-11-05T13:00:06.370Z,564.20
2022-11-05T13:05:16.667Z,581.03
2022-11-05T13:10:25.149Z,595.40
2022-11-05T13:15:33.710Z,584.78
2022-11-05T13:20:43.061Z,542.85
2022-11-05T13:26:01.361Z,553.65
2022-11-05T13:31:05.841Z,553.50
2022-11-05T13:36:30.360Z,570.40
2022-11-05T13:41:56.060Z,554.67
2022-11-05T13:46:58.332Z,551.17
2022-11-05T13:52:19.624Z,531.00
2022-11-05T13:57:35.706Z,519.00
2022-11-05T14:02:40.483Z,523.72
2022-11-05T14:07:45.379Z,533.38
2022-11-05T14:12:50.306Z,516.00
2022-11-05T14:17:59.180Z,534.92
2022-11-05T14:23:20.423Z,528.35
2022-11-05T14:28:34.978Z,525.33
2022-11-05T14:33:40.416Z,543.03
2022-11-05T14:39:05.638Z,525.28
2022-11-05T14:44:09.779Z,542.75
2022-11-05T14:49:20.026Z,533.67
2022-11-05T14:54:32.166Z,526.70
2022-11-05T14:59:50.248Z,510.88
2022-11-05T15:05:13.495Z,521.08
2022-11-05T15:10:17.167Z,520.38
2022-11-05T15:15:22.122Z,517.25
2022-11-05T15:20:34.691Z,494.65
2022-11-05T15:25:42.254Z,508.98
2022-11-05T15:30:56.901Z,504.75
2022-11-05T15:36:09.005Z,509.30
2022-11-05T15:41:15.732Z,536.08
2022-11-05T15:46:22.312Z,505.87
2022-11-05T15:51:26.061Z,523.80
2022-11-05T15:56:36.695Z,509.50
2022-11-05T16:01:46.183Z,482.85
2022-11-05T16:06:49.862Z,510.30
2022-11-05T16:12:10.969Z,485.05
2022-11-05T16:17:16.357Z,481.65
2022-11-05T16:22:18.648Z,513.88
2022-11-05T16:27:21.985Z,485.30
2022-11-05T16:32:30.304Z,483.70
2022-11-05T16:37:41.708Z,485.92
2022-11-05T16:42:48.279Z,512.58
2022-11-05T16:47:51.203Z,495.05
2022-11-05T16:52:56.499Z,502.13
2022-11-05T16:57:58.554Z,499.27
2022-11-05T17:03:00.503Z,506.75
2022-11-05T17:08:03.538Z,491.27
2022-11-05T17:13:05.350Z,509.70
2022-11-05T17:18:07.190Z,512.05
2022-11-05T17:23:10.970Z,502.15
2022-11-05T17:28:14.031Z,510.90
2022-11-05T17:33:17.196Z,494.35
2022-11-05T17:38:19.881Z,492.88
2022-11-05T17:43:22.215Z,506.35
2022-11-05T17:48:24.050Z,492.17
2022-11-05T17:53:25.972Z,496.42
2022-11-05T17:58:28.525Z,479.33
2022-11-05T18:03:30.697Z,484.05
2022-11-05T18:08:34.944Z,494.13
2022-11-05T18:13:37.257Z,487.08
2022-11-05T18:18:39.099Z,469.50
2022-11-05T18:23:42.060Z,476.00
2022-11-05T18:28:44.285Z,485.23
2022-11-05T18:33:48.406Z,485.95
2022-11-05T18:38:53.890Z,490.38
2022-11-05T18:44:08.489Z,498.23
2022-11-05T18:49:13.621Z,484.88
2022-11-05T18:54:15.763Z,510.45
2022-11-05T19:05:00.459Z,485.52
2022-11-05T19:10:05.190Z,484.30
2022-11-05T19:15:08.104Z,483.50
2022-11-05T19:20:12.603Z,498.42
2022-11-05T19:25:18.842Z,485.65
2022-11-05T19:30:21.331Z,484.33
2022-11-05T19:35:24.206Z,500.48
2022-11-05T19:40:33.043Z,479.08
2022-11-05T19:45:45.546Z,502.00
2022-11-05T19:50:47.855Z,473.55
2022-11-05T19:55:49.673Z,475.70
2022-11-05T20:00:51.879Z,497.58
2022-11-05T20:05:59.508Z,462.10
2022-11-05T20:11:09.388Z,493.27
2022-11-05T20:16:25.374Z,470.10
2022-11-05T20:21:27.106Z,491.63
2022-11-05T20:26:29.803Z,487.25
2022-11-05T20:36:49.477Z,456.25
2022-11-05T20:41:52.896Z,462.90
2022-11-05T20:46:54.792Z,453.00
2022-11-05T20:51:56.717Z,435.70
2022-11-05T20:56:58.476Z,457.30
2022-11-05T21:02:09.121Z,438.88
2022-11-05T21:07:10.981Z,457.52
2022-11-05T21:12:13.405Z,442.58
2022-11-05T21:17:16.253Z,469.13
2022-11-05T21:22:19.711Z,460.10
2022-11-05T21:27:21.485Z,452.45
2022-11-05T21:32:25.968Z,443.45
2022-11-05T21:37:27.821Z,463.52
2022-11-05T21:42:30.889Z,435.58
2022-11-05T21:47:32.696Z,440.92
2022-11-05T21:52:55.863Z,457.13
2022-11-05T21:58:22.148Z,452.77
2022-11-05T22:03:25.034Z,440.92
2022-11-05T22:08:27.296Z,429.95
2022-11-05T22:13:29.040Z,447.27
2022-11-05T22:18:31.822Z,439.85
2022-11-05T22:23:33.680Z,429.33
2022-11-05T22:28:35.486Z,444.73
2022-11-05T22:33:37.902Z,464.30
2022-11-05T22:38:42.329Z,443.70
2022-11-05T22:43:49.328Z,433.75
2022-11-05T22:48:51.534Z,434.80
2022-11-05T22:53:54.913Z,442.98
2022-11-05T22:58:57.179Z,437.30
2022-11-05T23:03:59.345Z,446.98
2022-11-05T23:09:19.937Z,454.30
2022-11-05T23:14:21.719Z,418.67
2022-11-05T23:19:42.095Z,411.30
2022-11-05T23:24:43.955Z,433.33
2022-11-05T23:29:45.706Z,430.13
2022-11-05T23:34:47.630Z,413.38
2022-11-05T23:39:50.352Z,417.58
2022-11-05T23:45:14.430Z,407.08
2022-11-05T23:50:16.904Z,415.80
2022-11-05T23:55:18.704Z,411.33
